Time;durP1;ratioP1;P1;durP2;ratioP2;P2;SDS_P1;SDS_P2;PMS_P1;PMS_P2;Temp;Humidity;BMP_temperature;BMP_pressure;BME280_temperature;BME280_humidity;BME280_pressure;Samples;Min_cycle;Max_cycle;Signal;HPM_P1;HPM_P2
2022/04/17 00:00:25;;;;;;;35.47;25.25;;;;;;;;;;5006425;28;20121;-62
2022/04/17 00:02:51;;;;;;;42.05;27.30;;;;;;;;;;5006057;28;20486;-62
2022/04/17 00:05:17;;;;;;;40.28;27.92;;;;;;;;;;4988661;28;20069;-63
2022/04/17 00:07:44;;;;;;;42.83;27.08;;;;;;;;;;5006133;28;20046;-64
2022/04/17 00:10:10;;;;;;;42.38;28.23;;;;;;;;;;5006125;28;20046;-63
2022/04/17 00:12:37;;;;;;;42.53;27.20;;;;;;;;;;5005880;28;20046;-63
2022/04/17 00:15:03;;;;;;;48.58;29.08;;;;;;;;;;5006101;28;20038;-63
2022/04/17 00:17:30;;;;;;;48.13;31.70;;;;;;;;;;5006061;28;20050;-63
2022/04/17 00:19:56;;;;;;;39.20;28.48;;;;;;;;;;5005966;28;20066;-62
2022/04/17 00:22:25;;;;;;;42.17;28.45;;;;;;;;;;5005818;28;20042;-62
2022/04/17 00:24:52;;;;;;;43.88;29.77;;;;;;;;;;5005987;28;20050;-62
2022/04/17 00:27:18;;;;;;;38.90;27.67;;;;;;;;;;5006072;28;20128;-62
2022/04/17 00:29:44;;;;;;;42.20;28.60;;;;;;;;;;5005896;28;20050;-62
2022/04/17 00:32:11;;;;;;;41.58;27.13;;;;;;;;;;5005470;28;20038;-63
2022/04/17 00:34:37;;;;;;;41.60;26.40;;;;;;;;;;5005589;28;20058;-63
2022/04/17 00:37:04;;;;;;;42.05;26.33;;;;;;;;;;5005567;28;20043;-63
2022/04/17 00:39:30;;;;;;;39.05;25.00;;;;;;;;;;4988316;28;20050;-62
2022/04/17 00:41:56;;;;;;;38.35;25.75;;;;;;;;;;5005653;28;20053;-63
2022/04/17 00:44:22;;;;;;;42.72;27.05;;;;;;;;;;5005604;28;20086;-62
2022/04/17 00:46:49;;;;;;;44.05;27.83;;;;;;;;;;5005611;28;20178;-62
2022/04/17 00:49:15;;;;;;;38.72;25.00;;;;;;;;;;5005529;28;20082;-63
2022/04/17 00:51:43;;;;;;;35.22;25.27;;;;;;;;;;4987803;28;20057;-62
2022/04/17 00:54:12;;;;;;;40.75;27.08;;;;;;;;;;5005254;28;20526;-64
2022/04/17 00:56:38;;;;;;;40.85;28.02;;;;;;;;;;5005517;28;20051;-63
2022/04/17 00:59:06;;;;;;;40.30;27.38;;;;;;;;;;5005386;28;20092;-62
2022/04/17 01:01:33;;;;;;;;;;;;;;;;;;5005853;28;20056;-62
2022/04/17 01:03:59;;;;;;;41.72;29.67;;;;;;;;;;5005053;28;19925;-62
2022/04/17 01:06:29;;;;;;;48.17;30.77;;;;;;;;;;5005096;28;20510;-62
2022/04/17 01:08:55;;;;;;;46.33;32.05;;;;;;;;;;5005266;28;20054;-62
2022/04/17 01:11:21;;;;;;;43.78;31.60;;;;;;;;;;4987793;28;20050;-62
2022/04/17 01:13:47;;;;;;;48.42;33.42;;;;;;;;;;5005266;28;20102;-61
2022/04/17 01:16:16;;;;;;;52.97;35.15;;;;;;;;;;5005133;28;20080;-63
2022/04/17 01:19:11;;;;;;;52.75;36.05;;;;;;;;;;5005294;28;20050;-61
2022/04/17 01:21:37;;;;;;;48.95;34.13;;;;;;;;;;5005012;28;20122;-62
2022/04/17 01:26:58;;;;;;;49.55;34.28;;;;;;;;;;5009214;28;20110;-62
2022/04/17 01:29:27;;;;;;;50.78;34.53;;;;;;;;;;5009060;28;20511;-62
2022/04/17 01:31:54;;;;;;;51.38;34.45;;;;;;;;;;5009217;28;20050;-62
2022/04/17 01:34:21;;;;;;;49.75;33.45;;;;;;;;;;5008699;28;20094;-63
2022/04/17 01:36:49;;;;;;;48.53;33.50;;;;;;;;;;5008794;28;20064;-62
2022/04/17 01:39:15;;;;;;;39.83;26.23;;;;;;;;;;5008981;28;20050;-63
2022/04/17 01:41:41;;;;;;;41.70;28.90;;;;;;;;;;5008818;28;20042;-62
2022/04/17 01:44:08;;;;;;;46.25;31.88;;;;;;;;;;5008960;28;20054;-63
2022/04/17 01:46:34;;;;;;;46.28;31.77;;;;;;;;;;5008984;28;20056;-62
2022/04/17 01:49:00;;;;;;;47.92;30.58;;;;;;;;;;5008712;28;20541;-62
2022/04/17 01:51:27;;;;;;;42.55;29.10;;;;;;;;;;5008701;28;20057;-62
2022/04/17 01:53:53;;;;;;;51.00;31.27;;;;;;;;;;5008558;28;20046;-62
2022/04/17 01:56:19;;;;;;;40.22;29.13;;;;;;;;;;5008592;28;20108;-62
2022/04/17 01:58:45;;;;;;;44.72;31.42;;;;;;;;;;5008566;28;20056;-63
2022/04/17 02:01:11;;;;;;;49.80;33.70;;;;;;;;;;5008739;28;20052;-63
2022/04/17 02:03:37;;;;;;;51.22;33.85;;;;;;;;;;5008380;28;20049;-62
2022/04/17 02:06:03;;;;;;;51.00;34.42;;;;;;;;;;5008333;28;20042;-63
2022/04/17 02:08:31;;;;;;;48.55;32.28;;;;;;;;;;5008430;28;20081;-63
2022/04/17 02:10:57;;;;;;;47.75;33.88;;;;;;;;;;5008386;28;20046;-63
2022/04/17 02:13:23;;;;;;;44.15;31.23;;;;;;;;;;5008361;28;20133;-63
2022/04/17 02:15:53;;;;;;;45.20;31.83;;;;;;;;;;5008288;28;20054;-62
2022/04/17 02:18:20;;;;;;;46.67;33.17;;;;;;;;;;5008253;28;20054;-61
2022/04/17 02:20:47;;;;;;;50.83;32.67;;;;;;;;;;5008131;28;20053;-63
2022/04/17 02:23:13;;;;;;;52.60;37.05;;;;;;;;;;5008164;28;20050;-63
2022/04/17 02:25:39;;;;;;;50.00;34.65;;;;;;;;;;5008046;28;20458;-64
2022/04/17 02:28:05;;;;;;;55.65;37.70;;;;;;;;;;5008086;28;20061;-63
2022/04/17 02:30:32;;;;;;;46.67;32.63;;;;;;;;;;5008194;28;20049;-62
2022/04/17 02:32:58;;;;;;;49.90;36.55;;;;;;;;;;5007886;28;20070;-63
2022/04/17 02:35:24;;;;;;;54.67;38.85;;;;;;;;;;5007691;28;20058;-63
2022/04/17 02:37:50;;;;;;;46.75;35.58;;;;;;;;;;4990500;28;20054;-63
2022/04/17 02:40:16;;;;;;;48.15;33.00;;;;;;;;;;5007737;28;20050;-63
2022/04/17 02:42:43;;;;;;;55.50;38.53;;;;;;;;;;5007763;28;20046;-63
2022/04/17 02:45:09;;;;;;;57.75;41.00;;;;;;;;;;4990180;28;20060;-63
2022/04/17 02:47:45;;;;;;;59.22;44.03;;;;;;;;;;5007794;28;20054;-62
2022/04/17 02:50:12;;;;;;;59.95;41.75;;;;;;;;;;5007447;28;20513;-62
2022/04/17 02:52:38;;;;;;;62.03;45.17;;;;;;;;;;5007675;28;20049;-62
2022/04/17 02:55:04;;;;;;;63.85;46.38;;;;;;;;;;5007477;28;20043;-63
2022/04/17 02:57:30;;;;;;;70.63;48.90;;;;;;;;;;5007553;28;20089;-62
2022/04/17 02:59:57;;;;;;;62.17;46.28;;;;;;;;;;5007328;28;20495;-63
2022/04/17 03:07:53;;;;;;;64.40;43.90;;;;;;;;;;5007609;28;20081;-64
2022/04/17 03:10:19;;;;;;;56.90;38.65;;;;;;;;;;5007284;28;20058;-62
2022/04/17 03:12:46;;;;;;;54.53;37.90;;;;;;;;;;5007177;28;20561;-63
2022/04/17 03:15:12;;;;;;;48.45;36.13;;;;;;;;;;5007351;28;20050;-62
2022/04/17 03:17:38;;;;;;;51.55;37.15;;;;;;;;;;5007336;28;20077;-63
2022/04/17 03:20:05;;;;;;;49.97;35.45;;;;;;;;;;5006916;28;20042;-63
2022/04/17 03:22:34;;;;;;;49.67;33.38;;;;;;;;;;5007051;28;20102;-63
2022/04/17 03:25:01;;;;;;;46.88;34.00;;;;;;;;;;5006923;28;20062;-62
2022/04/17 03:27:30;;;;;;;42.70;29.35;;;;;;;;;;5007062;28;20046;-63
2022/04/17 03:29:57;;;;;;;49.28;30.02;;;;;;;;;;5006993;28;20129;-62
2022/04/17 03:32:23;;;;;;;40.63;27.85;;;;;;;;;;5006830;28;20058;-62
2022/04/17 03:34:49;;;;;;;43.35;28.80;;;;;;;;;;5006488;28;20058;-62
2022/04/17 03:37:15;;;;;;;45.22;31.05;;;;;;;;;;5006830;28;20053;-62
2022/04/17 03:39:41;;;;;;;46.17;32.63;;;;;;;;;;5006646;28;20065;-61
2022/04/17 03:42:07;;;;;;;44.95;28.92;;;;;;;;;;5006717;28;20098;-62
2022/04/17 03:44:33;;;;;;;49.03;31.48;;;;;;;;;;5006678;28;20050;-62
2022/04/17 03:47:00;;;;;;;43.25;30.23;;;;;;;;;;5005896;28;20050;-62
2022/04/17 03:49:26;;;;;;;44.35;29.35;;;;;;;;;;5006541;28;20049;-63
2022/04/17 03:51:52;;;;;;;45.78;29.42;;;;;;;;;;5006468;28;20047;-63
2022/04/17 03:54:19;;;;;;;41.72;27.98;;;;;;;;;;5006360;28;20056;-62
2022/04/17 03:56:47;;;;;;;41.65;27.40;;;;;;;;;;4989004;28;20115;-63
2022/04/17 03:59:13;;;;;;;34.08;25.50;;;;;;;;;;5006466;28;20457;-63
2022/04/17 04:01:39;;;;;;;39.63;27.02;;;;;;;;;;5006345;28;20050;-62
2022/04/17 04:04:09;;;;;;;41.08;26.02;;;;;;;;;;5006019;28;20053;-63
2022/04/17 04:06:35;;;;;;;35.28;25.17;;;;;;;;;;4988595;28;20046;-62
2022/04/17 04:09:01;;;;;;;37.35;25.30;;;;;;;;;;5006039;28;20409;-63
2022/04/17 04:11:27;;;;;;;35.10;23.98;;;;;;;;;;5006201;28;20117;-63
2022/04/17 04:13:56;;;;;;;30.90;23.02;;;;;;;;;;5006170;28;20081;-63
2022/04/17 04:16:22;;;;;;;33.90;22.73;;;;;;;;;;5006038;28;20042;-62
2022/04/17 04:18:48;;;;;;;36.75;24.23;;;;;;;;;;5006100;28;20057;-62
2022/04/17 04:21:14;;;;;;;34.88;24.95;;;;;;;;;;5005840;28;20105;-62
2022/04/17 04:23:41;;;;;;;35.30;24.33;;;;;;;;;;5005792;28;20490;-62
2022/04/17 04:26:07;;;;;;;36.38;23.48;;;;;;;;;;5005927;28;20053;-63
2022/04/17 04:28:34;;;;;;;37.78;23.23;;;;;;;;;;5005756;28;20074;-62
2022/04/17 04:31:04;;;;;;;32.50;22.60;;;;;;;;;;5005829;28;20093;-62
2022/04/17 04:33:31;;;;;;;35.17;23.60;;;;;;;;;;5005612;28;20061;-63
2022/04/17 04:35:58;;;;;;;33.25;24.00;;;;;;;;;;5005621;28;20047;-62
2022/04/17 04:38:24;;;;;;;36.55;24.17;;;;;;;;;;5005705;28;20089;-62
2022/04/17 04:40:51;;;;;;;31.17;22.60;;;;;;;;;;5005793;28;20039;-62
2022/04/17 04:43:18;;;;;;;37.03;23.08;;;;;;;;;;4988221;28;20112;-63
2022/04/17 04:51:13;;;;;;;31.55;20.60;;;;;;;;;;5005444;28;20042;-62
2022/04/17 04:53:40;;;;;;;36.95;23.63;;;;;;;;;;5005368;28;20110;-62
2022/04/17 04:56:06;;;;;;;33.95;22.73;;;;;;;;;;5005332;28;20084;-63
2022/04/17 04:58:33;;;;;;;39.00;24.05;;;;;;;;;;5004491;28;20477;-62
2022/04/17 05:00:59;;;;;;;32.72;21.52;;;;;;;;;;5005452;28;20512;-63
2022/04/17 05:03:25;;;;;;;35.88;22.83;;;;;;;;;;5005223;28;20042;-62
2022/04/17 05:05:51;;;;;;;35.50;22.83;;;;;;;;;;4987794;28;20050;-62
2022/04/17 05:08:19;;;;;;;31.65;22.08;;;;;;;;;;5005296;28;20078;-63
2022/04/17 05:10:45;;;;;;;33.33;21.33;;;;;;;;;;5005285;28;20103;-63
2022/04/17 05:13:11;;;;;;;29.40;21.70;;;;;;;;;;5005226;28;20066;-62
2022/04/17 05:15:37;;;;;;;33.85;21.70;;;;;;;;;;4987643;28;20134;-62
2022/04/17 05:18:04;;;;;;;33.63;22.58;;;;;;;;;;5005086;28;20042;-61
2022/04/17 05:20:32;;;;;;;31.02;21.38;;;;;;;;;;5005123;28;20450;-61
2022/04/17 05:23:04;;;;;;;39.08;23.25;;;;;;;;;;5005203;28;20102;-62
2022/04/17 05:25:30;;;;;;;28.70;20.35;;;;;;;;;;5005162;28;20054;-62
2022/04/17 05:27:56;;;;;;;31.33;21.17;;;;;;;;;;5005195;28;20421;-62
2022/04/17 05:30:22;;;;;;;34.58;21.02;;;;;;;;;;5005214;28;20048;-62
2022/04/17 05:32:48;;;;;;;30.55;19.15;;;;;;;;;;5004717;28;20260;-62
2022/04/17 05:35:14;;;;;;;31.35;19.67;;;;;;;;;;5004955;28;20054;-62
2022/04/17 05:37:40;;;;;;;30.08;21.05;;;;;;;;;;5005182;28;20046;-62
2022/04/17 05:40:07;;;;;;;34.50;19.52;;;;;;;;;;4987501;28;20138;-62
2022/04/17 05:42:33;;;;;;;29.25;19.38;;;;;;;;;;5005014;28;20053;-62
2022/04/17 05:44:59;;;;;;;32.08;20.05;;;;;;;;;;5004977;28;20042;-62
2022/04/17 05:47:25;;;;;;;31.73;18.92;;;;;;;;;;5004815;28;20106;-62
2022/04/17 05:49:51;;;;;;;26.42;17.88;;;;;;;;;;5004903;28;20038;-62
2022/04/17 05:52:17;;;;;;;31.10;18.42;;;;;;;;;;5004666;28;20046;-63
2022/04/17 05:54:43;;;;;;;26.38;16.80;;;;;;;;;;5004927;28;20042;-62
2022/04/17 05:57:10;;;;;;;27.35;17.98;;;;;;;;;;4987429;28;20061;-62
2022/04/17 05:59:36;;;;;;;25.75;16.25;;;;;;;;;;5004914;28;20045;-63
2022/04/17 06:02:03;;;;;;;28.75;16.73;;;;;;;;;;5004568;28;20043;-62
2022/04/17 06:04:29;;;;;;;24.55;16.58;;;;;;;;;;5004882;28;20465;-62
2022/04/17 06:06:55;;;;;;;24.08;16.58;;;;;;;;;;5004610;28;20053;-62
2022/04/17 06:09:21;;;;;;;25.88;16.73;;;;;;;;;;5004639;28;20050;-62
2022/04/17 06:11:47;;;;;;;25.10;15.23;;;;;;;;;;5008361;28;20116;-62
2022/04/17 06:14:13;;;;;;;21.85;16.20;;;;;;;;;;5008553;28;20062;-63
2022/04/17 06:16:40;;;;;;;27.02;15.82;;;;;;;;;;4990364;28;20081;-63
2022/04/17 06:19:09;;;;;;;25.83;14.50;;;;;;;;;;5008333;28;20297;-62
2022/04/17 06:21:35;;;;;;;23.70;14.82;;;;;;;;;;5008195;28;20069;-62
2022/04/17 06:24:02;;;;;;;23.40;14.35;;;;;;;;;;5008192;28;20046;-63
2022/04/17 06:26:28;;;;;;;22.20;14.30;;;;;;;;;;5008212;28;20050;-62
2022/04/17 06:28:54;;;;;;;20.50;14.02;;;;;;;;;;5008072;28;20038;-62
2022/04/17 06:31:20;;;;;;;19.13;13.60;;;;;;;;;;5008061;28;20061;-62
2022/04/17 06:33:46;;;;;;;20.10;13.45;;;;;;;;;;4990381;28;20050;-62
2022/04/17 06:36:12;;;;;;;18.77;11.70;;;;;;;;;;5007877;28;20402;-62
2022/04/17 06:38:38;;;;;;;26.77;13.70;;;;;;;;;;4990009;28;20074;-62
2022/04/17 06:41:04;;;;;;;20.77;13.13;;;;;;;;;;5007856;28;20042;-63
2022/04/17 06:43:30;;;;;;;20.63;12.68;;;;;;;;;;5007973;28;20505;-62
2022/04/17 06:45:56;;;;;;;19.90;12.07;;;;;;;;;;5007881;28;20049;-63
2022/04/17 06:48:23;;;;;;;20.70;11.32;;;;;;;;;;5007646;28;20121;-63
2022/04/17 06:50:50;;;;;;;18.92;12.15;;;;;;;;;;5007530;28;20072;-63
2022/04/17 06:53:16;;;;;;;17.80;12.00;;;;;;;;;;5007501;28;20102;-63
2022/04/17 06:55:43;;;;;;;19.30;13.07;;;;;;;;;;5007811;28;20042;-63
2022/04/17 06:58:09;;;;;;;20.42;12.35;;;;;;;;;;5007395;28;20081;-63
2022/04/17 07:00:36;;;;;;;17.33;11.73;;;;;;;;;;5007261;28;20042;-63
2022/04/17 07:03:02;;;;;;;20.75;11.57;;;;;;;;;;5007313;28;20054;-63
2022/04/17 07:05:28;;;;;;;17.27;12.18;;;;;;;;;;4989848;28;20133;-63
2022/04/17 07:07:59;;;;;;;21.08;12.00;;;;;;;;;;5007197;28;20053;-63
2022/04/17 07:10:26;;;;;;;16.85;11.00;;;;;;;;;;5007276;28;20106;-63
2022/04/17 07:12:52;;;;;;;15.35;11.18;;;;;;;;;;5007166;28;20405;-63
2022/04/17 07:15:19;;;;;;;16.25;10.82;;;;;;;;;;5007407;28;20078;-63
2022/04/17 07:17:46;;;;;;;15.65;10.68;;;;;;;;;;5007346;28;20053;-63
2022/04/17 07:20:12;;;;;;;14.75;10.35;;;;;;;;;;5007029;28;20060;-63
2022/04/17 07:22:41;;;;;;;13.13;9.77;;;;;;;;;;5005753;28;20050;-63
2022/04/17 07:25:08;;;;;;;13.77;8.88;;;;;;;;;;5007168;28;20068;-63
2022/04/17 07:27:38;;;;;;;15.10;9.30;;;;;;;;;;5006897;28;20405;-63
2022/04/17 07:30:17;;;;;;;15.32;9.18;;;;;;;;;;5006981;28;20046;-63
2022/04/17 07:32:45;;;;;;;14.30;9.02;;;;;;;;;;5006687;28;20038;-63
2022/04/17 07:35:12;;;;;;;14.82;8.90;;;;;;;;;;5004384;28;20054;-64
2022/04/17 07:37:38;;;;;;;11.15;8.25;;;;;;;;;;5006865;28;20054;-63
2022/04/17 07:40:13;;;;;;;13.60;8.55;;;;;;;;;;5006547;28;20070;-64
2022/04/17 07:42:39;;;;;;;14.48;8.93;;;;;;;;;;5006513;28;20060;-64
2022/04/17 07:45:05;;;;;;;12.77;8.68;;;;;;;;;;5006607;28;20078;-63
2022/04/17 07:47:31;;;;;;;14.40;8.73;;;;;;;;;;5006409;28;20050;-63
2022/04/17 07:49:59;;;;;;;11.73;8.50;;;;;;;;;;5006454;28;20049;-64
2022/04/17 07:52:25;;;;;;;12.63;8.70;;;;;;;;;;5006170;28;20051;-65
2022/04/17 07:54:51;;;;;;;13.20;9.27;;;;;;;;;;5006393;28;20081;-64
2022/04/17 07:57:17;;;;;;;11.45;8.23;;;;;;;;;;5006398;28;20492;-63
2022/04/17 07:59:43;;;;;;;11.30;8.40;;;;;;;;;;4988785;28;20129;-63
2022/04/17 08:02:22;;;;;;;11.73;8.10;;;;;;;;;;5006016;28;20110;-64
2022/04/17 08:04:50;;;;;;;13.25;8.70;;;;;;;;;;5006145;28;20053;-63
2022/04/17 08:07:16;;;;;;;11.50;7.85;;;;;;;;;;5006000;28;20054;-63
2022/04/17 08:09:42;;;;;;;11.32;8.07;;;;;;;;;;5006164;28;20101;-63
2022/04/17 08:12:08;;;;;;;11.43;8.30;;;;;;;;;;5005974;28;20070;-63
2022/04/17 08:14:34;;;;;;;13.95;8.88;;;;;;;;;;5006130;28;20054;-64
2022/04/17 08:17:00;;;;;;;12.20;7.93;;;;;;;;;;5006093;28;20061;-64
2022/04/17 08:19:29;;;;;;;12.90;8.52;;;;;;;;;;5005998;28;20049;-63
2022/04/17 08:21:55;;;;;;;16.25;8.52;;;;;;;;;;5005796;28;20073;-63
2022/04/17 08:24:22;;;;;;;10.40;7.68;;;;;;;;;;5005737;28;20052;-63
2022/04/17 08:26:48;;;;;;;12.70;8.10;;;;;;;;;;5005808;28;20046;-63
2022/04/17 08:29:14;;;;;;;14.30;8.23;;;;;;;;;;5005813;28;20057;-63
2022/04/17 08:31:40;;;;;;;11.25;7.10;;;;;;;;;;5005750;28;20554;-63
2022/04/17 08:34:07;;;;;;;10.77;7.18;;;;;;;;;;5005259;28;20086;-63
2022/04/17 08:36:33;;;;;;;11.13;7.50;;;;;;;;;;4988181;28;20046;-64
2022/04/17 08:38:59;;;;;;;9.07;6.68;;;;;;;;;;5005877;28;20137;-64
2022/04/17 08:41:26;;;;;;;11.80;8.20;;;;;;;;;;5005544;28;20102;-64
2022/04/17 08:43:52;;;;;;;13.63;7.55;;;;;;;;;;5005644;28;20097;-64
2022/04/17 08:46:18;;;;;;;11.70;7.10;;;;;;;;;;5005503;28;20081;-63
2022/04/17 08:48:45;;;;;;;12.65;7.57;;;;;;;;;;5005509;28;20122;-63
2022/04/17 08:51:11;;;;;;;10.50;7.28;;;;;;;;;;5005325;28;20054;-63
2022/04/17 08:53:39;;;;;;;9.85;7.30;;;;;;;;;;5005377;28;20074;-63
2022/04/17 08:56:05;;;;;;;9.15;5.63;;;;;;;;;;5005423;28;20046;-63
2022/04/17 08:58:32;;;;;;;8.57;6.60;;;;;;;;;;5005592;28;20046;-62
2022/04/17 09:00:58;;;;;;;7.85;7.00;;;;;;;;;;5005598;28;20569;-63
2022/04/17 09:03:24;;;;;;;11.20;7.07;;;;;;;;;;5005332;28;20045;-64
2022/04/17 09:05:50;;;;;;;8.70;6.68;;;;;;;;;;5005058;28;20046;-62
2022/04/17 09:08:21;;;;;;;9.85;5.95;;;;;;;;;;5005120;28;20046;-63
2022/04/17 09:10:54;;;;;;;9.57;6.72;;;;;;;;;;5005145;28;20039;-64
2022/04/17 09:13:31;;;;;;;9.40;6.07;;;;;;;;;;4987474;28;20387;-63
2022/04/17 09:15:57;;;;;;;11.05;6.68;;;;;;;;;;5005222;28;20050;-62
2022/04/17 09:18:23;;;;;;;10.30;6.72;;;;;;;;;;5004976;28;20098;-64
2022/04/17 09:20:50;;;;;;;11.77;7.03;;;;;;;;;;5005084;28;20047;-63
2022/04/17 09:23:32;;;;;;;10.23;6.72;;;;;;;;;;5005001;28;20394;-62
2022/04/17 09:25:58;;;;;;;9.13;6.70;;;;;;;;;;5004834;28;20050;-63
2022/04/17 09:28:30;;;;;;;8.32;6.03;;;;;;;;;;5005216;28;20054;-63
2022/04/17 09:30:57;;;;;;;9.77;6.85;;;;;;;;;;5004795;28;20117;-63
2022/04/17 09:33:34;;;;;;;10.93;6.22;;;;;;;;;;5004822;28;20053;-64
2022/04/17 09:36:00;;;;;;;11.45;5.88;;;;;;;;;;5004596;28;20047;-63
2022/04/17 09:38:30;;;;;;;7.63;5.80;;;;;;;;;;5004952;28;20082;-62
2022/04/17 09:41:13;;;;;;;8.60;5.75;;;;;;;;;;5005205;28;20074;-63
2022/04/17 09:43:39;;;;;;;12.85;5.93;;;;;;;;;;5004904;28;20054;-62
2022/04/17 09:46:09;;;;;;;6.53;5.45;;;;;;;;;;5007264;28;20054;-63
2022/04/17 09:48:39;;;;;;;9.55;6.28;;;;;;;;;;5008790;28;20042;-62
2022/04/17 09:51:24;;;;;;;9.95;5.47;;;;;;;;;;5008264;28;20073;-62
2022/04/17 09:53:57;;;;;;;6.43;5.30;;;;;;;;;;5008562;28;20046;-62
2022/04/17 09:56:30;;;;;;;8.75;5.78;;;;;;;;;;5008458;28;20064;-63
2022/04/17 09:58:57;;;;;;;6.07;4.45;;;;;;;;;;5008518;28;20105;-62
2022/04/17 10:01:23;;;;;;;6.53;5.35;;;;;;;;;;5008310;28;20046;-63
2022/04/17 10:03:50;;;;;;;10.85;4.68;;;;;;;;;;5008399;28;20054;-63
2022/04/17 10:06:16;;;;;;;6.20;4.18;;;;;;;;;;5008258;28;20050;-64
2022/04/17 10:08:44;;;;;;;6.53;4.88;;;;;;;;;;5008323;28;20054;-62
2022/04/17 10:11:11;;;;;;;6.80;4.30;;;;;;;;;;5008301;28;20125;-63
2022/04/17 10:13:38;;;;;;;6.32;4.38;;;;;;;;;;5007978;28;20050;-63
2022/04/17 10:16:04;;;;;;;4.75;3.53;;;;;;;;;;5008127;28;20046;-62
2022/04/17 10:18:36;;;;;;;6.65;4.25;;;;;;;;;;5007937;28;20441;-62
2022/04/17 10:21:05;;;;;;;10.45;5.20;;;;;;;;;;5007892;28;20046;-63
2022/04/17 10:23:31;;;;;;;6.63;4.28;;;;;;;;;;5008022;28;20046;-62
2022/04/17 10:25:58;;;;;;;8.50;5.22;;;;;;;;;;5008021;28;20050;-62
2022/04/17 10:28:26;;;;;;;6.32;4.32;;;;;;;;;;5007913;28;20046;-63
2022/04/17 10:31:05;;;;;;;5.57;3.50;;;;;;;;;;5007935;28;20101;-62
2022/04/17 10:33:39;;;;;;;4.60;3.00;;;;;;;;;;5007613;28;20134;-62
2022/04/17 10:36:10;;;;;;;5.57;3.33;;;;;;;;;;5007241;28;20054;-62
2022/04/17 10:38:51;;;;;;;3.53;2.90;;;;;;;;;;5008000;28;20046;-62
2022/04/17 10:41:17;;;;;;;3.80;3.13;;;;;;;;;;5007785;28;20061;-62
2022/04/17 10:43:43;;;;;;;5.00;3.25;;;;;;;;;;5007716;28;20038;-61
2022/04/17 10:46:12;;;;;;;6.53;3.30;;;;;;;;;;5007638;28;20117;-62
2022/04/17 10:48:42;;;;;;;4.60;3.25;;;;;;;;;;5007496;28;20545;-62
2022/04/17 10:51:16;;;;;;;7.25;3.95;;;;;;;;;;5007544;28;20109;-63
2022/04/17 10:54:03;;;;;;;6.88;4.38;;;;;;;;;;5007280;28;20498;-64
2022/04/17 10:56:32;;;;;;;4.68;2.97;;;;;;;;;;5006354;28;20050;-62
2022/04/17 10:59:00;;;;;;;4.45;2.83;;;;;;;;;;5007410;28;20391;-62
2022/04/17 11:01:41;;;;;;;5.65;3.70;;;;;;;;;;5007577;28;20343;-62
2022/04/17 11:04:21;;;;;;;4.55;2.60;;;;;;;;;;5007080;28;20052;-63
2022/04/17 11:06:52;;;;;;;3.17;2.55;;;;;;;;;;5007251;28;20045;-63
2022/04/17 11:09:22;;;;;;;4.75;3.50;;;;;;;;;;5007193;28;20050;-63
2022/04/17 11:11:49;;;;;;;4.22;2.55;;;;;;;;;;5006980;28;20047;-63
2022/04/17 11:14:25;;;;;;;4.07;2.55;;;;;;;;;;5007089;28;20050;-62
2022/04/17 11:16:53;;;;;;;3.60;2.45;;;;;;;;;;5007105;28;20125;-64
2022/04/17 11:19:20;;;;;;;5.18;2.60;;;;;;;;;;5007014;28;20065;-63
2022/04/17 11:21:47;;;;;;;4.80;2.20;;;;;;;;;;5007079;28;20054;-63
2022/04/17 11:24:14;;;;;;;5.32;2.80;;;;;;;;;;5007015;28;20051;-63
2022/04/17 11:26:52;;;;;;;5.10;2.75;;;;;;;;;;5006918;28;20112;-63
2022/04/17 11:29:39;;;;;;;3.38;2.90;;;;;;;;;;5006700;28;20056;-62
2022/04/17 11:32:26;;;;;;;5.82;3.30;;;;;;;;;;5006748;28;20050;-62
2022/04/17 11:34:52;;;;;;;5.75;3.17;;;;;;;;;;4990766;28;20046;-62
2022/04/17 11:37:19;;;;;;;9.93;3.78;;;;;;;;;;5006463;28;20110;-63
2022/04/17 11:39:46;;;;;;;4.85;3.10;;;;;;;;;;5006600;28;20098;-62
2022/04/17 11:42:12;;;;;;;4.80;3.40;;;;;;;;;;5006522;28;20049;-62
2022/04/17 11:44:42;;;;;;;3.97;3.00;;;;;;;;;;5006539;28;20490;-62
2022/04/17 11:47:10;;;;;;;5.38;3.33;;;;;;;;;;5006421;28;20046;-62
2022/04/17 11:49:47;;;;;;;3.75;3.10;;;;;;;;;;5006165;28;20053;-63
2022/04/17 11:52:13;;;;;;;4.35;2.90;;;;;;;;;;5006177;28;20050;-63
2022/04/17 11:54:39;;;;;;;6.18;3.38;;;;;;;;;;5006792;28;20054;-63
2022/04/17 11:57:06;;;;;;;4.30;3.28;;;;;;;;;;5006571;28;20097;-63
2022/04/17 11:59:48;;;;;;;3.80;2.58;;;;;;;;;;5006172;28;20069;-63
2022/04/17 12:02:18;;;;;;;4.13;3.03;;;;;;;;;;5006068;28;20057;-62
2022/04/17 12:04:45;;;;;;;6.50;3.40;;;;;;;;;;5006340;28;20049;-63
2022/04/17 12:07:12;;;;;;;6.10;3.08;;;;;;;;;;5006026;28;20043;-63
2022/04/17 12:09:39;;;;;;;5.00;3.40;;;;;;;;;;5005902;28;20113;-63
2022/04/17 12:12:14;;;;;;;4.32;3.22;;;;;;;;;;5006004;28;20110;-63
2022/04/17 12:14:41;;;;;;;4.88;2.72;;;;;;;;;;5005785;28;20077;-62
2022/04/17 12:17:08;;;;;;;4.88;3.17;;;;;;;;;;5005981;28;20050;-63
2022/04/17 12:19:34;;;;;;;5.03;3.40;;;;;;;;;;5005866;28;20057;-63
2022/04/17 12:22:04;;;;;;;4.53;3.30;;;;;;;;;;5005636;28;20438;-62
2022/04/17 12:24:30;;;;;;;4.68;3.22;;;;;;;;;;5005868;28;20082;-62
2022/04/17 12:26:56;;;;;;;4.45;3.20;;;;;;;;;;5005909;28;20098;-62
2022/04/17 12:29:23;;;;;;;3.83;3.20;;;;;;;;;;5005754;28;20093;-62
2022/04/17 12:31:49;;;;;;;;;;;;;;;;;;5006498;28;20062;-62
2022/04/17 12:34:19;;;;;;;4.07;3.58;;;;;;;;;;5020445;28;19968;-62
2022/04/17 12:36:45;;;;;;;6.10;3.80;;;;;;;;;;5005696;28;20121;-62
2022/04/17 12:39:12;;;;;;;3.97;3.45;;;;;;;;;;5005479;28;20038;-62
2022/04/17 12:41:51;;;;;;;4.30;3.45;;;;;;;;;;5005557;28;20113;-62
2022/04/17 12:44:31;;;;;;;5.03;3.75;;;;;;;;;;5005483;28;20442;-63
2022/04/17 12:47:09;;;;;;;5.10;3.85;;;;;;;;;;5005684;28;20581;-63
2022/04/17 12:49:37;;;;;;;4.78;3.67;;;;;;;;;;4988125;28;20038;-62
2022/04/17 12:52:03;;;;;;;5.72;4.00;;;;;;;;;;5005174;28;20046;-63
2022/04/17 12:54:33;;;;;;;5.55;3.88;;;;;;;;;;4987730;28;20064;-63
2022/04/17 12:57:06;;;;;;;5.75;3.63;;;;;;;;;;5005223;28;20042;-62
2022/04/17 12:59:48;;;;;;;6.65;4.10;;;;;;;;;;5005283;28;20050;-62
2022/04/17 13:02:15;;;;;;;5.20;3.83;;;;;;;;;;5005143;28;20076;-63
2022/04/17 13:04:43;;;;;;;4.85;4.15;;;;;;;;;;5005277;28;20050;-63
2022/04/17 13:07:11;;;;;;;5.65;4.50;;;;;;;;;;5005208;28;20102;-63
2022/04/17 13:09:37;;;;;;;5.82;3.90;;;;;;;;;;5005183;28;20084;-63
2022/04/17 13:12:03;;;;;;;5.10;3.75;;;;;;;;;;5005221;28;20046;-63
2022/04/17 13:14:29;;;;;;;6.28;4.40;;;;;;;;;;5005294;28;20050;-63
2022/04/17 13:17:02;;;;;;;4.78;3.90;;;;;;;;;;5005339;28;20068;-63
2022/04/17 13:19:29;;;;;;;6.05;3.90;;;;;;;;;;5004484;28;20502;-64
2022/04/17 13:21:55;;;;;;;;;;;;;;;;;;5005381;28;20077;-63
2022/04/17 13:24:22;;;;;;;5.30;3.85;;;;;;;;;;5004937;28;20032;-63
2022/04/17 13:26:49;;;;;;;4.68;3.53;;;;;;;;;;5005015;28;20346;-63
2022/04/17 13:29:16;;;;;;;5.88;4.07;;;;;;;;;;5004993;28;20054;-63
2022/04/17 13:31:45;;;;;;;6.97;3.95;;;;;;;;;;5005212;28;20050;-64
2022/04/17 13:34:12;;;;;;;5.30;4.40;;;;;;;;;;5004615;28;20070;-63
2022/04/17 13:36:38;;;;;;;;;;;;;;;;;;5005358;28;20131;-63
2022/04/17 13:39:04;;;;;;;5.95;3.70;;;;;;;;;;5004763;28;19921;-63
2022/04/17 13:41:30;;;;;;;7.15;4.55;;;;;;;;;;4987558;28;20054;-64
2022/04/17 13:43:56;;;;;;;5.60;3.83;;;;;;;;;;5004953;28;20082;-63
2022/04/17 13:46:27;;;;;;;6.07;4.10;;;;;;;;;;5004956;28;20050;-63
2022/04/17 13:48:53;;;;;;;7.00;3.83;;;;;;;;;;5004921;28;20045;-63
2022/04/17 13:51:19;;;;;;;6.32;3.72;;;;;;;;;;5004636;28;20054;-64
2022/04/17 13:53:45;;;;;;;4.07;3.15;;;;;;;;;;5004804;28;20054;-63
2022/04/17 13:56:11;;;;;;;5.63;4.00;;;;;;;;;;5004981;28;20042;-63
2022/04/17 13:58:37;;;;;;;4.72;3.50;;;;;;;;;;5004886;28;20050;-63
2022/04/17 14:01:04;;;;;;;4.05;3.65;;;;;;;;;;5004837;28;20089;-63
2022/04/17 14:03:30;;;;;;;5.38;3.38;;;;;;;;;;5004668;28;20129;-63
2022/04/17 14:05:56;;;;;;;5.88;3.50;;;;;;;;;;5004565;28;20053;-63
2022/04/17 14:08:22;;;;;;;4.40;3.92;;;;;;;;;;5004713;28;20046;-64
2022/04/17 14:10:48;;;;;;;5.85;3.78;;;;;;;;;;5004780;28;20085;-63
2022/04/17 14:13:15;;;;;;;5.93;3.65;;;;;;;;;;5004538;28;20046;-63
2022/04/17 14:15:41;;;;;;;4.68;3.45;;;;;;;;;;5004657;28;20057;-64
2022/04/17 14:18:07;;;;;;;5.00;3.80;;;;;;;;;;5004719;28;20052;-63
2022/04/17 14:20:34;;;;;;;5.50;4.22;;;;;;;;;;5004390;28;20043;-66
2022/04/17 14:23:00;;;;;;;4.90;4.25;;;;;;;;;;5004601;28;20518;-63
2022/04/17 14:25:26;;;;;;;5.68;3.90;;;;;;;;;;5004705;28;20057;-64
2022/04/17 14:27:52;;;;;;;7.50;4.00;;;;;;;;;;5004610;28;20045;-63
2022/04/17 14:30:18;;;;;;;4.65;3.67;;;;;;;;;;5004605;28;20089;-64
2022/04/17 14:32:45;;;;;;;5.57;3.72;;;;;;;;;;5007442;28;20106;-64
2022/04/17 14:35:12;;;;;;;4.88;3.75;;;;;;;;;;4978414;28;20054;-64
2022/04/17 14:37:39;;;;;;;5.43;4.28;;;;;;;;;;4988389;28;20093;-63
2022/04/17 14:40:05;;;;;;;;;;;;;;;;;;4988906;28;20094;-63
2022/04/17 14:42:31;;;;;;;3.90;3.38;;;;;;;;;;4988445;28;19922;-63
2022/04/17 14:44:58;;;;;;;7.32;3.85;;;;;;;;;;4988385;28;20058;-64
2022/04/17 14:47:24;;;;;;;6.07;3.63;;;;;;;;;;4988341;28;20126;-63